sensor_id;sensor_type;location;lat;lon;timestamp;pressure;altitude;pressure_sealevel;temperature;humidity
7834;BME280;3962;42.696;23.354;2024-02-28T00:01:49;95489.63;;;9.11;80.03
7834;BME280;3962;42.696;23.354;2024-02-28T00:04:16;95498.16;;;9.14;79.37
7834;BME280;3962;42.696;23.354;2024-02-28T00:07:01;95498.84;;;9.16;79.19
7834;BME280;3962;42.696;23.354;2024-02-28T00:09:28;95496.06;;;9.18;78.94
7834;BME280;3962;42.696;23.354;2024-02-28T00:11:55;95504.16;;;9.16;79.08
7834;BME280;3962;42.696;23.354;2024-02-28T00:14:22;95504.00;;;9.08;78.69
7834;BME280;3962;42.696;23.354;2024-02-28T00:16:50;95508.19;;;9.01;79.64
7834;BME280;3962;42.696;23.354;2024-02-28T00:19:17;95501.56;;;8.96;79.89
7834;BME280;3962;42.696;23.354;2024-02-28T00:21:45;95505.41;;;8.82;79.92
7834;BME280;3962;42.696;23.354;2024-02-28T00:24:12;95500.75;;;8.75;80.18
7834;BME280;3962;42.696;23.354;2024-02-28T00:26:41;95506.59;;;8.69;81.06
7834;BME280;3962;42.696;23.354;2024-02-28T00:29:08;95503.34;;;8.65;81.47
7834;BME280;3962;42.696;23.354;2024-02-28T00:31:35;95500.50;;;8.57;81.24
7834;BME280;3962;42.696;23.354;2024-02-28T00:34:04;95503.44;;;8.54;82.10
7834;BME280;3962;42.696;23.354;2024-02-28T00:36:32;95500.06;;;8.52;81.63
7834;BME280;3962;42.696;23.354;2024-02-28T00:38:59;95495.88;;;8.50;82.63
7834;BME280;3962;42.696;23.354;2024-02-28T00:41:26;95494.81;;;8.41;82.28
7834;BME280;3962;42.696;23.354;2024-02-28T00:43:53;95504.84;;;8.38;82.36
7834;BME280;3962;42.696;23.354;2024-02-28T00:46:20;95491.78;;;8.25;82.92
7834;BME280;3962;42.696;23.354;2024-02-28T00:48:46;95497.78;;;8.27;82.96
7834;BME280;3962;42.696;23.354;2024-02-28T00:51:15;95496.00;;;8.28;83.02
7834;BME280;3962;42.696;23.354;2024-02-28T00:53:41;95500.72;;;8.24;82.98
7834;BME280;3962;42.696;23.354;2024-02-28T00:56:08;95502.50;;;8.24;83.90
7834;BME280;3962;42.696;23.354;2024-02-28T00:58:35;95502.13;;;8.28;83.86
7834;BME280;3962;42.696;23.354;2024-02-28T01:01:02;95508.38;;;8.27;83.24
7834;BME280;3962;42.696;23.354;2024-02-28T01:03:29;95509.47;;;8.25;83.23
7834;BME280;3962;42.696;23.354;2024-02-28T01:05:56;95510.44;;;8.24;83.99
7834;BME280;3962;42.696;23.354;2024-02-28T01:08:27;95508.78;;;8.23;84.39
7834;BME280;3962;42.696;23.354;2024-02-28T01:10:54;95515.31;;;8.19;83.93
7834;BME280;3962;42.696;23.354;2024-02-28T01:13:21;95511.91;;;8.17;84.67
7834;BME280;3962;42.696;23.354;2024-02-28T01:15:48;95507.72;;;8.14;84.39
7834;BME280;3962;42.696;23.354;2024-02-28T01:18:15;95508.22;;;8.08;85.14
7834;BME280;3962;42.696;23.354;2024-02-28T01:20:42;95509.91;;;7.98;84.77
7834;BME280;3962;42.696;23.354;2024-02-28T01:23:08;95519.00;;;7.85;85.30
7834;BME280;3962;42.696;23.354;2024-02-28T01:25:36;95517.97;;;7.76;85.74
7834;BME280;3962;42.696;23.354;2024-02-28T01:28:04;95517.88;;;7.67;86.22
7834;BME280;3962;42.696;23.354;2024-02-28T01:30:31;95514.72;;;7.62;87.25
7834;BME280;3962;42.696;23.354;2024-02-28T01:32:58;95513.44;;;7.56;86.25
7834;BME280;3962;42.696;23.354;2024-02-28T01:35:25;95517.03;;;7.55;87.39
7834;BME280;3962;42.696;23.354;2024-02-28T01:37:51;95514.19;;;7.47;86.60
7834;BME280;3962;42.696;23.354;2024-02-28T01:40:18;95524.88;;;7.46;87.31
7834;BME280;3962;42.696;23.354;2024-02-28T01:42:46;95531.41;;;7.42;87.68
7834;BME280;3962;42.696;23.354;2024-02-28T01:45:14;95525.50;;;7.38;87.36
7834;BME280;3962;42.696;23.354;2024-02-28T01:47:41;95528.53;;;7.34;87.43
7834;BME280;3962;42.696;23.354;2024-02-28T01:50:09;95526.47;;;7.26;87.61
7834;BME280;3962;42.696;23.354;2024-02-28T01:52:37;95525.16;;;7.21;88.07
7834;BME280;3962;42.696;23.354;2024-02-28T01:55:05;95518.44;;;7.17;88.13
7834;BME280;3962;42.696;23.354;2024-02-28T01:57:33;95524.56;;;7.17;87.75
7834;BME280;3962;42.696;23.354;2024-02-28T02:00:05;95537.91;;;7.16;88.42
7834;BME280;3962;42.696;23.354;2024-02-28T02:02:34;95537.31;;;7.13;89.57
7834;BME280;3962;42.696;23.354;2024-02-28T02:05:01;95538.16;;;7.13;89.43
7834;BME280;3962;42.696;23.354;2024-02-28T02:07:28;95530.22;;;7.13;90.06
7834;BME280;3962;42.696;23.354;2024-02-28T02:09:55;95527.78;;;7.21;89.09
7834;BME280;3962;42.696;23.354;2024-02-28T02:12:21;95529.38;;;7.23;88.76
7834;BME280;3962;42.696;23.354;2024-02-28T02:14:48;95522.88;;;7.16;88.67
7834;BME280;3962;42.696;23.354;2024-02-28T02:17:16;95536.00;;;7.18;89.19
7834;BME280;3962;42.696;23.354;2024-02-28T02:19:43;95528.28;;;7.15;90.02
7834;BME280;3962;42.696;23.354;2024-02-28T02:22:13;95533.94;;;7.10;88.93
7834;BME280;3962;42.696;23.354;2024-02-28T02:24:42;95527.81;;;7.10;89.44
7834;BME280;3962;42.696;23.354;2024-02-28T02:27:09;95529.25;;;7.14;90.12
7834;BME280;3962;42.696;23.354;2024-02-28T02:29:36;95529.50;;;7.11;89.01
7834;BME280;3962;42.696;23.354;2024-02-28T02:32:03;95527.22;;;7.07;88.58
7834;BME280;3962;42.696;23.354;2024-02-28T02:34:30;95518.91;;;7.00;89.53
7834;BME280;3962;42.696;23.354;2024-02-28T02:36:56;95518.06;;;7.00;89.45
7834;BME280;3962;42.696;23.354;2024-02-28T02:39:23;95532.38;;;6.97;89.67
7834;BME280;3962;42.696;23.354;2024-02-28T02:41:51;95524.91;;;6.91;90.72
7834;BME280;3962;42.696;23.354;2024-02-28T02:44:21;95528.88;;;6.86;90.43
7834;BME280;3962;42.696;23.354;2024-02-28T02:46:48;95532.59;;;6.83;90.37
7834;BME280;3962;42.696;23.354;2024-02-28T02:49:15;95534.53;;;6.81;91.05
7834;BME280;3962;42.696;23.354;2024-02-28T02:51:44;95537.28;;;6.80;91.78
7834;BME280;3962;42.696;23.354;2024-02-28T02:54:11;95534.78;;;6.78;92.26
7834;BME280;3962;42.696;23.354;2024-02-28T02:56:41;95533.19;;;6.76;91.03
7834;BME280;3962;42.696;23.354;2024-02-28T02:59:09;95524.41;;;6.75;91.50
7834;BME280;3962;42.696;23.354;2024-02-28T03:01:36;95529.34;;;6.80;92.14
7834;BME280;3962;42.696;23.354;2024-02-28T03:04:03;95528.53;;;6.79;91.55
7834;BME280;3962;42.696;23.354;2024-02-28T03:06:30;95528.06;;;6.85;91.71
7834;BME280;3962;42.696;23.354;2024-02-28T03:08:57;95526.47;;;6.83;91.40
7834;BME280;3962;42.696;23.354;2024-02-28T03:11:24;95527.91;;;6.87;91.20
7834;BME280;3962;42.696;23.354;2024-02-28T03:13:51;95525.50;;;6.84;91.13
7834;BME280;3962;42.696;23.354;2024-02-28T03:16:19;95521.31;;;6.81;91.32
7834;BME280;3962;42.696;23.354;2024-02-28T03:18:46;95523.81;;;6.72;91.70
7834;BME280;3962;42.696;23.354;2024-02-28T03:21:12;95522.72;;;6.74;92.00
7834;BME280;3962;42.696;23.354;2024-02-28T03:23:39;95529.47;;;6.78;92.53
7834;BME280;3962;42.696;23.354;2024-02-28T03:26:06;95514.19;;;6.71;91.85
7834;BME280;3962;42.696;23.354;2024-02-28T03:28:33;95527.56;;;6.80;91.70
7834;BME280;3962;42.696;23.354;2024-02-28T03:30:59;95539.81;;;6.81;92.07
7834;BME280;3962;42.696;23.354;2024-02-28T03:33:27;95540.88;;;6.79;91.96
7834;BME280;3962;42.696;23.354;2024-02-28T03:35:57;95528.03;;;6.74;91.87
7834;BME280;3962;42.696;23.354;2024-02-28T03:38:23;95537.78;;;6.74;92.26
7834;BME280;3962;42.696;23.354;2024-02-28T03:40:50;95548.22;;;6.75;93.02
7834;BME280;3962;42.696;23.354;2024-02-28T03:43:17;95542.47;;;6.81;93.20
7834;BME280;3962;42.696;23.354;2024-02-28T03:45:44;95555.44;;;6.84;92.27
7834;BME280;3962;42.696;23.354;2024-02-28T03:48:10;95552.78;;;6.84;93.24
7834;BME280;3962;42.696;23.354;2024-02-28T03:50:39;95554.34;;;6.87;92.48
7834;BME280;3962;42.696;23.354;2024-02-28T03:53:05;95551.00;;;6.85;92.38
7834;BME280;3962;42.696;23.354;2024-02-28T03:55:32;95549.22;;;6.85;92.41
7834;BME280;3962;42.696;23.354;2024-02-28T03:57:59;95540.53;;;6.83;92.99
7834;BME280;3962;42.696;23.354;2024-02-28T04:00:26;95550.16;;;6.84;92.32
7834;BME280;3962;42.696;23.354;2024-02-28T04:02:53;95549.91;;;6.76;93.03
7834;BME280;3962;42.696;23.354;2024-02-28T04:05:19;95546.94;;;6.81;93.16
7834;BME280;3962;42.696;23.354;2024-02-28T04:07:47;95543.31;;;6.82;92.60
7834;BME280;3962;42.696;23.354;2024-02-28T04:10:15;95540.88;;;6.79;92.64
7834;BME280;3962;42.696;23.354;2024-02-28T04:12:42;95542.22;;;6.84;93.16
7834;BME280;3962;42.696;23.354;2024-02-28T04:15:10;95534.28;;;6.84;91.94
7834;BME280;3962;42.696;23.354;2024-02-28T04:17:37;95531.16;;;6.90;93.13
7834;BME280;3962;42.696;23.354;2024-02-28T04:20:08;95547.84;;;6.80;92.13
7834;BME280;3962;42.696;23.354;2024-02-28T04:22:35;95548.22;;;6.75;92.60
7834;BME280;3962;42.696;23.354;2024-02-28T04:25:03;95545.22;;;6.69;92.53
7834;BME280;3962;42.696;23.354;2024-02-28T04:27:30;95542.66;;;6.67;92.63
7834;BME280;3962;42.696;23.354;2024-02-28T04:29:57;95539.91;;;6.69;92.86
7834;BME280;3962;42.696;23.354;2024-02-28T04:32:24;95541.25;;;6.74;93.34
7834;BME280;3962;42.696;23.354;2024-02-28T04:34:50;95537.88;;;6.72;93.38
7834;BME280;3962;42.696;23.354;2024-02-28T04:37:17;95542.91;;;6.64;93.61
7834;BME280;3962;42.696;23.354;2024-02-28T04:39:44;95538.97;;;6.70;94.33
7834;BME280;3962;42.696;23.354;2024-02-28T04:42:12;95539.44;;;6.75;94.60
7834;BME280;3962;42.696;23.354;2024-02-28T04:44:39;95547.25;;;6.76;94.13
7834;BME280;3962;42.696;23.354;2024-02-28T04:47:06;95551.81;;;6.74;93.70
7834;BME280;3962;42.696;23.354;2024-02-28T04:49:33;95549.19;;;6.74;94.61
7834;BME280;3962;42.696;23.354;2024-02-28T04:52:02;95556.38;;;6.72;94.04
7834;BME280;3962;42.696;23.354;2024-02-28T04:54:29;95544.75;;;6.75;94.32
7834;BME280;3962;42.696;23.354;2024-02-28T04:56:56;95551.22;;;6.71;94.79
7834;BME280;3962;42.696;23.354;2024-02-28T04:59:25;95559.66;;;6.76;94.10
7834;BME280;3962;42.696;23.354;2024-02-28T05:01:52;95553.03;;;6.81;94.86
7834;BME280;3962;42.696;23.354;2024-02-28T05:04:19;95553.88;;;6.82;95.29
7834;BME280;3962;42.696;23.354;2024-02-28T05:06:46;95560.16;;;6.81;95.21
7834;BME280;3962;42.696;23.354;2024-02-28T05:09:13;95552.06;;;6.82;94.35
7834;BME280;3962;42.696;23.354;2024-02-28T05:11:40;95562.44;;;6.85;95.04
7834;BME280;3962;42.696;23.354;2024-02-28T05:14:07;95557.97;;;6.86;95.12
7834;BME280;3962;42.696;23.354;2024-02-28T05:16:35;95568.44;;;6.87;94.92
7834;BME280;3962;42.696;23.354;2024-02-28T05:19:03;95570.38;;;6.96;95.70
7834;BME280;3962;42.696;23.354;2024-02-28T05:21:30;95583.25;;;7.01;94.71
7834;BME280;3962;42.696;23.354;2024-02-28T05:23:57;95585.41;;;7.07;94.68
7834;BME280;3962;42.696;23.354;2024-02-28T05:26:23;95588.66;;;7.10;94.99
7834;BME280;3962;42.696;23.354;2024-02-28T05:28:50;95585.78;;;7.13;94.77
7834;BME280;3962;42.696;23.354;2024-02-28T05:31:21;95592.88;;;7.23;94.75
7834;BME280;3962;42.696;23.354;2024-02-28T05:33:50;95591.91;;;7.24;93.54
7834;BME280;3962;42.696;23.354;2024-02-28T05:36:17;95592.88;;;7.23;93.59
7834;BME280;3962;42.696;23.354;2024-02-28T05:38:44;95598.88;;;7.25;93.20
7834;BME280;3962;42.696;23.354;2024-02-28T05:41:12;95606.97;;;7.24;93.69
7834;BME280;3962;42.696;23.354;2024-02-28T05:43:40;95603.09;;;7.28;93.97
7834;BME280;3962;42.696;23.354;2024-02-28T05:46:07;95604.31;;;7.24;93.98
7834;BME280;3962;42.696;23.354;2024-02-28T05:48:34;95617.16;;;7.17;94.23
7834;BME280;3962;42.696;23.354;2024-02-28T05:51:03;95610.09;;;7.18;93.77
7834;BME280;3962;42.696;23.354;2024-02-28T05:53:29;95610.69;;;7.21;94.23
7834;BME280;3962;42.696;23.354;2024-02-28T05:55:58;95620.06;;;7.25;93.84
7834;BME280;3962;42.696;23.354;2024-02-28T05:58:25;95611.75;;;7.19;93.66
7834;BME280;3962;42.696;23.354;2024-02-28T06:00:53;95621.63;;;7.17;93.48
7834;BME280;3962;42.696;23.354;2024-02-28T06:03:20;95624.13;;;7.18;93.57
7834;BME280;3962;42.696;23.354;2024-02-28T06:05:47;95632.06;;;7.18;93.76
7834;BME280;3962;42.696;23.354;2024-02-28T06:08:17;95624.25;;;7.06;93.30
7834;BME280;3962;42.696;23.354;2024-02-28T06:10:44;95633.50;;;7.11;93.84
7834;BME280;3962;42.696;23.354;2024-02-28T06:13:12;95636.50;;;7.07;93.79
7834;BME280;3962;42.696;23.354;2024-02-28T06:15:39;95631.34;;;7.16;94.02
7834;BME280;3962;42.696;23.354;2024-02-28T06:18:08;95637.25;;;7.20;94.47
7834;BME280;3962;42.696;23.354;2024-02-28T06:20:35;95639.78;;;7.21;94.65
7834;BME280;3962;42.696;23.354;2024-02-28T06:23:02;95642.69;;;7.29;93.63
7834;BME280;3962;42.696;23.354;2024-02-28T06:25:30;95642.78;;;7.39;94.04
7834;BME280;3962;42.696;23.354;2024-02-28T06:27:59;95647.03;;;7.52;93.52
7834;BME280;3962;42.696;23.354;2024-02-28T06:30:32;95645.94;;;7.66;93.64
7834;BME280;3962;42.696;23.354;2024-02-28T06:32:59;95647.97;;;7.84;92.50
7834;BME280;3962;42.696;23.354;2024-02-28T06:35:26;95641.69;;;7.96;92.46
7834;BME280;3962;42.696;23.354;2024-02-28T06:37:53;95646.50;;;8.02;91.57
7834;BME280;3962;42.696;23.354;2024-02-28T06:40:20;95642.88;;;8.14;91.25
7834;BME280;3962;42.696;23.354;2024-02-28T06:42:48;95645.16;;;8.30;90.67
7834;BME280;3962;42.696;23.354;2024-02-28T06:45:16;95653.91;;;8.41;89.82
7834;BME280;3962;42.696;23.354;2024-02-28T06:47:44;95649.31;;;8.43;89.67
7834;BME280;3962;42.696;23.354;2024-02-28T06:50:12;95641.13;;;8.46;90.15
7834;BME280;3962;42.696;23.354;2024-02-28T06:52:38;95653.47;;;8.57;90.44
7834;BME280;3962;42.696;23.354;2024-02-28T06:55:06;95637.19;;;8.61;89.80
7834;BME280;3962;42.696;23.354;2024-02-28T06:57:35;95643.88;;;8.76;89.38
7834;BME280;3962;42.696;23.354;2024-02-28T07:00:05;95647.97;;;8.80;89.16
7834;BME280;3962;42.696;23.354;2024-02-28T07:02:33;95644.66;;;8.88;89.45
7834;BME280;3962;42.696;23.354;2024-02-28T07:05:00;95644.53;;;8.89;88.52
7834;BME280;3962;42.696;23.354;2024-02-28T07:07:28;95645.13;;;8.93;88.54
7834;BME280;3962;42.696;23.354;2024-02-28T07:09:56;95649.25;;;8.86;88.65
7834;BME280;3962;42.696;23.354;2024-02-28T07:12:23;95647.97;;;8.80;88.81
7834;BME280;3962;42.696;23.354;2024-02-28T07:14:50;95644.81;;;8.86;88.85
7834;BME280;3962;42.696;23.354;2024-02-28T07:17:18;95647.91;;;8.91;88.65
7834;BME280;3962;42.696;23.354;2024-02-28T07:19:45;95644.41;;;8.91;88.87
7834;BME280;3962;42.696;23.354;2024-02-28T07:22:13;95652.63;;;9.08;88.30
7834;BME280;3962;42.696;23.354;2024-02-28T07:24:40;95649.34;;;9.16;88.14
7834;BME280;3962;42.696;23.354;2024-02-28T07:27:08;95648.09;;;9.20;87.79
7834;BME280;3962;42.696;23.354;2024-02-28T07:29:36;95662.69;;;9.25;87.12
7834;BME280;3962;42.696;23.354;2024-02-28T07:32:03;95658.84;;;9.39;86.63
7834;BME280;3962;42.696;23.354;2024-02-28T07:34:32;95657.34;;;9.46;85.42
7834;BME280;3962;42.696;23.354;2024-02-28T07:36:59;95654.16;;;9.52;85.05
7834;BME280;3962;42.696;23.354;2024-02-28T07:39:26;95656.16;;;9.59;85.15
7834;BME280;3962;42.696;23.354;2024-02-28T07:41:53;95659.28;;;9.74;84.19
7834;BME280;3962;42.696;23.354;2024-02-28T07:44:20;95656.25;;;9.78;83.76
7834;BME280;3962;42.696;23.354;2024-02-28T07:46:48;95662.31;;;9.90;83.38
7834;BME280;3962;42.696;23.354;2024-02-28T07:49:16;95659.34;;;10.13;82.49
7834;BME280;3962;42.696;23.354;2024-02-28T07:51:44;95655.50;;;10.36;81.70
7834;BME280;3962;42.696;23.354;2024-02-28T07:54:11;95657.50;;;10.63;80.64
7834;BME280;3962;42.696;23.354;2024-02-28T07:56:38;95652.72;;;10.76;79.50
7834;BME280;3962;42.696;23.354;2024-02-28T07:59:05;95658.19;;;10.83;78.68
7834;BME280;3962;42.696;23.354;2024-02-28T08:01:31;95654.25;;;10.97;78.52
7834;BME280;3962;42.696;23.354;2024-02-28T08:03:59;95651.88;;;11.13;77.20
7834;BME280;3962;42.696;23.354;2024-02-28T08:06:27;95660.72;;;11.23;77.03
7834;BME280;3962;42.696;23.354;2024-02-28T08:08:55;95655.22;;;11.43;76.88
7834;BME280;3962;42.696;23.354;2024-02-28T08:11:22;95653.91;;;11.66;75.68
7834;BME280;3962;42.696;23.354;2024-02-28T08:13:50;95653.84;;;11.85;74.64
7834;BME280;3962;42.696;23.354;2024-02-28T08:16:17;95648.16;;;12.07;74.46
7834;BME280;3962;42.696;23.354;2024-02-28T08:18:44;95647.69;;;12.39;73.61
7834;BME280;3962;42.696;23.354;2024-02-28T08:21:11;95639.81;;;12.64;72.15
7834;BME280;3962;42.696;23.354;2024-02-28T08:23:38;95643.28;;;13.27;69.76
7834;BME280;3962;42.696;23.354;2024-02-28T08:26:06;95646.97;;;13.77;67.74
7834;BME280;3962;42.696;23.354;2024-02-28T08:28:33;95658.09;;;13.90;66.45
7834;BME280;3962;42.696;23.354;2024-02-28T08:31:00;95653.63;;;13.98;66.29
7834;BME280;3962;42.696;23.354;2024-02-28T08:33:26;95647.59;;;14.22;65.58
7834;BME280;3962;42.696;23.354;2024-02-28T08:35:53;95647.22;;;13.91;65.65
7834;BME280;3962;42.696;23.354;2024-02-28T08:38:20;95642.88;;;13.65;66.10
7834;BME280;3962;42.696;23.354;2024-02-28T08:40:47;95644.16;;;13.78;65.70
7834;BME280;3962;42.696;23.354;2024-02-28T08:43:15;95643.38;;;13.94;65.30
7834;BME280;3962;42.696;23.354;2024-02-28T08:45:42;95641.25;;;14.72;64.15
7834;BME280;3962;42.696;23.354;2024-02-28T08:48:09;95639.28;;;14.98;62.76
7834;BME280;3962;42.696;23.354;2024-02-28T08:50:35;95637.56;;;14.73;62.04
7834;BME280;3962;42.696;23.354;2024-02-28T08:53:02;95641.53;;;14.61;62.19
7834;BME280;3962;42.696;23.354;2024-02-28T08:55:29;95638.56;;;14.64;62.38
7834;BME280;3962;42.696;23.354;2024-02-28T08:57:56;95632.59;;;15.10;60.97
7834;BME280;3962;42.696;23.354;2024-02-28T09:00:24;95633.44;;;15.18;61.01
7834;BME280;3962;42.696;23.354;2024-02-28T09:02:51;95622.59;;;15.44;60.39
7834;BME280;3962;42.696;23.354;2024-02-28T09:05:18;95626.91;;;15.05;61.02
7834;BME280;3962;42.696;23.354;2024-02-28T09:07:45;95627.72;;;14.97;61.69
7834;BME280;3962;42.696;23.354;2024-02-28T09:10:16;95629.38;;;14.90;62.41
7834;BME280;3962;42.696;23.354;2024-02-28T09:12:46;95627.22;;;15.02;62.11
7834;BME280;3962;42.696;23.354;2024-02-28T09:15:13;95630.75;;;15.10;61.94
7834;BME280;3962;42.696;23.354;2024-02-28T09:17:41;95625.44;;;15.50;61.10
7834;BME280;3962;42.696;23.354;2024-02-28T09:20:09;95639.34;;;15.70;60.42
7834;BME280;3962;42.696;23.354;2024-02-28T09:22:36;95637.16;;;15.65;60.41
7834;BME280;3962;42.696;23.354;2024-02-28T09:25:04;95643.13;;;15.99;59.25
7834;BME280;3962;42.696;23.354;2024-02-28T09:27:34;95631.91;;;15.96;59.25
7834;BME280;3962;42.696;23.354;2024-02-28T09:30:01;95636.78;;;15.84;58.80
7834;BME280;3962;42.696;23.354;2024-02-28T09:32:28;95619.69;;;15.93;58.05
7834;BME280;3962;42.696;23.354;2024-02-28T09:34:56;95623.13;;;16.10;58.09
7834;BME280;3962;42.696;23.354;2024-02-28T09:37:23;95612.63;;;16.47;56.63
7834;BME280;3962;42.696;23.354;2024-02-28T09:39:50;95614.72;;;16.67;56.49
7834;BME280;3962;42.696;23.354;2024-02-28T09:42:18;95612.50;;;16.71;55.36
7834;BME280;3962;42.696;23.354;2024-02-28T09:44:45;95606.34;;;16.62;55.82
7834;BME280;3962;42.696;23.354;2024-02-28T09:47:13;95607.66;;;16.20;55.62
7834;BME280;3962;42.696;23.354;2024-02-28T09:49:41;95609.34;;;16.37;55.77
7834;BME280;3962;42.696;23.354;2024-02-28T09:52:10;95607.59;;;16.44;56.00
7834;BME280;3962;42.696;23.354;2024-02-28T09:54:37;95597.13;;;16.57;55.43
7834;BME280;3962;42.696;23.354;2024-02-28T09:57:04;95601.75;;;16.71;54.89
7834;BME280;3962;42.696;23.354;2024-02-28T09:59:31;95593.44;;;16.58;54.91
7834;BME280;3962;42.696;23.354;2024-02-28T10:01:59;95600.06;;;16.39;55.20
7834;BME280;3962;42.696;23.354;2024-02-28T10:04:29;95594.03;;;16.37;55.25
7834;BME280;3962;42.696;23.354;2024-02-28T10:06:56;95589.16;;;16.41;55.12
7834;BME280;3962;42.696;23.354;2024-02-28T10:09:24;95585.91;;;16.53;54.95
7834;BME280;3962;42.696;23.354;2024-02-28T10:11:52;95595.06;;;16.28;54.51
7834;BME280;3962;42.696;23.354;2024-02-28T10:14:19;95585.16;;;15.82;55.27
7834;BME280;3962;42.696;23.354;2024-02-28T10:16:45;95583.03;;;15.46;55.60
7834;BME280;3962;42.696;23.354;2024-02-28T10:19:12;95581.22;;;15.38;55.70
7834;BME280;3962;42.696;23.354;2024-02-28T10:21:39;95585.38;;;15.41;55.71
7834;BME280;3962;42.696;23.354;2024-02-28T10:24:06;95576.78;;;15.77;56.20
7834;BME280;3962;42.696;23.354;2024-02-28T10:26:41;95575.19;;;16.07;54.03
7834;BME280;3962;42.696;23.354;2024-02-28T10:29:08;95563.78;;;15.97;53.75
7834;BME280;3962;42.696;23.354;2024-02-28T10:31:36;95567.56;;;16.26;54.11
7834;BME280;3962;42.696;23.354;2024-02-28T10:34:04;95559.94;;;16.46;52.94
7834;BME280;3962;42.696;23.354;2024-02-28T10:36:32;95564.28;;;16.47;53.44
7834;BME280;3962;42.696;23.354;2024-02-28T10:39:00;95553.56;;;16.69;52.26
7834;BME280;3962;42.696;23.354;2024-02-28T10:41:28;95549.94;;;16.85;51.89
7834;BME280;3962;42.696;23.354;2024-02-28T10:43:58;95538.34;;;17.07;51.35
7834;BME280;3962;42.696;23.354;2024-02-28T10:46:26;95550.91;;;17.14;51.74
7834;BME280;3962;42.696;23.354;2024-02-28T10:48:53;95547.16;;;17.60;50.83
7834;BME280;3962;42.696;23.354;2024-02-28T10:51:23;95549.31;;;17.42;50.00
7834;BME280;3962;42.696;23.354;2024-02-28T10:53:59;95541.44;;;17.41;50.35
7834;BME280;3962;42.696;23.354;2024-02-28T10:56:29;95540.06;;;17.22;50.87
7834;BME280;3962;42.696;23.354;2024-02-28T10:58:59;95530.34;;;17.21;50.39
7834;BME280;3962;42.696;23.354;2024-02-28T11:01:26;95530.88;;;17.17;49.76
7834;BME280;3962;42.696;23.354;2024-02-28T11:03:53;95530.09;;;17.08;50.10
7834;BME280;3962;42.696;23.354;2024-02-28T11:06:22;95525.84;;;17.14;51.07
7834;BME280;3962;42.696;23.354;2024-02-28T11:08:51;95524.75;;;17.23;51.38
7834;BME280;3962;42.696;23.354;2024-02-28T11:11:20;95520.19;;;17.09;52.06
7834;BME280;3962;42.696;23.354;2024-02-28T11:13:54;95521.75;;;17.03;52.28
7834;BME280;3962;42.696;23.354;2024-02-28T11:16:30;95523.34;;;16.90;52.75
7834;BME280;3962;42.696;23.354;2024-02-28T11:18:57;95515.44;;;16.96;52.39
7834;BME280;3962;42.696;23.354;2024-02-28T11:21:24;95498.88;;;16.85;51.57
7834;BME280;3962;42.696;23.354;2024-02-28T11:23:56;95505.09;;;17.08;51.85
7834;BME280;3962;42.696;23.354;2024-02-28T11:26:23;95500.91;;;16.83;52.02
7834;BME280;3962;42.696;23.354;2024-02-28T11:28:50;95502.47;;;16.77;52.23
7834;BME280;3962;42.696;23.354;2024-02-28T11:31:17;95494.47;;;16.69;52.68
7834;BME280;3962;42.696;23.354;2024-02-28T11:33:46;95495.94;;;16.94;51.76
7834;BME280;3962;42.696;23.354;2024-02-28T11:36:13;95487.78;;;16.88;51.27
7834;BME280;3962;42.696;23.354;2024-02-28T11:38:40;95487.88;;;16.94;51.93
7834;BME280;3962;42.696;23.354;2024-02-28T11:41:07;95488.50;;;17.19;51.81
7834;BME280;3962;42.696;23.354;2024-02-28T11:43:34;95480.81;;;17.16;50.86
7834;BME280;3962;42.696;23.354;2024-02-28T11:46:07;95478.34;;;16.92;50.47
7834;BME280;3962;42.696;23.354;2024-02-28T11:48:34;95475.59;;;16.77;51.17
7834;BME280;3962;42.696;23.354;2024-02-28T11:51:02;95467.72;;;16.76;51.02
7834;BME280;3962;42.696;23.354;2024-02-28T11:53:29;95478.84;;;16.87;50.75
7834;BME280;3962;42.696;23.354;2024-02-28T11:55:56;95481.69;;;16.94;51.70
7834;BME280;3962;42.696;23.354;2024-02-28T11:58:23;95471.19;;;16.99;50.30
7834;BME280;3962;42.696;23.354;2024-02-28T12:00:51;95477.06;;;17.02;50.18
7834;BME280;3962;42.696;23.354;2024-02-28T12:03:27;95473.38;;;17.03;50.11
7834;BME280;3962;42.696;23.354;2024-02-28T12:05:55;95473.00;;;17.21;49.85
7834;BME280;3962;42.696;23.354;2024-02-28T12:08:24;95471.69;;;17.39;49.73
7834;BME280;3962;42.696;23.354;2024-02-28T12:10:51;95473.00;;;17.58;50.12
7834;BME280;3962;42.696;23.354;2024-02-28T12:13:18;95463.34;;;17.49;49.45
7834;BME280;3962;42.696;23.354;2024-02-28T12:15:46;95453.34;;;17.72;48.18
7834;BME280;3962;42.696;23.354;2024-02-28T12:18:15;95453.13;;;17.73;48.92
7834;BME280;3962;42.696;23.354;2024-02-28T12:20:42;95449.16;;;17.69;49.34
7834;BME280;3962;42.696;23.354;2024-02-28T12:23:09;95443.59;;;17.71;48.56
7834;BME280;3962;42.696;23.354;2024-02-28T12:25:39;95433.28;;;17.60;49.03
7834;BME280;3962;42.696;23.354;2024-02-28T12:28:06;95438.41;;;17.55;48.96
7834;BME280;3962;42.696;23.354;2024-02-28T12:30:39;95431.81;;;17.72;49.39
7834;BME280;3962;42.696;23.354;2024-02-28T12:33:06;95431.13;;;17.99;48.75
7834;BME280;3962;42.696;23.354;2024-02-28T12:35:34;95434.84;;;17.98;48.41
7834;BME280;3962;42.696;23.354;2024-02-28T12:38:03;95431.97;;;17.99;48.46
7834;BME280;3962;42.696;23.354;2024-02-28T12:40:32;95432.88;;;17.92;48.98
7834;BME280;3962;42.696;23.354;2024-02-28T12:43:01;95432.03;;;18.06;48.66
7834;BME280;3962;42.696;23.354;2024-02-28T12:45:28;95430.94;;;18.00;48.83
7834;BME280;3962;42.696;23.354;2024-02-28T12:47:56;95427.81;;;17.53;49.72
7834;BME280;3962;42.696;23.354;2024-02-28T12:50:23;95431.16;;;17.41;50.08
7834;BME280;3962;42.696;23.354;2024-02-28T12:52:51;95428.53;;;17.33;50.38
7834;BME280;3962;42.696;23.354;2024-02-28T12:55:21;95431.03;;;17.34;49.94
7834;BME280;3962;42.696;23.354;2024-02-28T12:57:48;95420.09;;;17.36;49.84
7834;BME280;3962;42.696;23.354;2024-02-28T13:00:17;95425.97;;;17.39;49.74
7834;BME280;3962;42.696;23.354;2024-02-28T13:02:45;95432.34;;;17.53;49.67
7834;BME280;3962;42.696;23.354;2024-02-28T13:05:12;95426.25;;;17.44;49.23
7834;BME280;3962;42.696;23.354;2024-02-28T13:07:39;95425.50;;;17.50;49.28
7834;BME280;3962;42.696;23.354;2024-02-28T13:10:07;95421.97;;;17.50;49.34
7834;BME280;3962;42.696;23.354;2024-02-28T13:12:35;95427.34;;;17.35;49.40
7834;BME280;3962;42.696;23.354;2024-02-28T13:15:02;95426.59;;;17.41;49.41
7834;BME280;3962;42.696;23.354;2024-02-28T13:17:32;95424.22;;;17.46;49.22
7834;BME280;3962;42.696;23.354;2024-02-28T13:19:59;95424.50;;;17.51;48.78